createdAt,value
2023-07-24T00:00:16.096Z,21.80
2023-07-24T00:02:42.802Z,21.80
2023-07-24T00:05:11.261Z,21.70
2023-07-24T00:07:38.044Z,21.60
2023-07-24T00:10:05.681Z,21.50
2023-07-24T00:12:32.876Z,21.40
2023-07-24T00:14:59.829Z,21.30
2023-07-24T00:17:26.644Z,21.30
2023-07-24T00:19:53.326Z,21.20
2023-07-24T00:22:20.078Z,21.20
2023-07-24T00:24:46.950Z,21.10
2023-07-24T00:27:15.007Z,21.00
2023-07-24T00:29:41.721Z,20.90
2023-07-24T00:32:08.796Z,21.00
2023-07-24T00:34:35.955Z,20.90
2023-07-24T00:37:03.095Z,20.80
2023-07-24T00:39:30.791Z,20.90
2023-07-24T00:41:57.890Z,20.90
2023-07-24T00:44:27.213Z,20.90
2023-07-24T00:46:55.370Z,20.80
2023-07-24T00:49:22.258Z,20.80
2023-07-24T00:51:49.379Z,20.80
2023-07-24T00:54:17.792Z,20.80
2023-07-24T00:56:46.500Z,20.80
2023-07-24T00:59:16.182Z,20.80
2023-07-24T01:01:43.832Z,20.80
2023-07-24T01:04:10.655Z,20.90
2023-07-24T01:06:37.372Z,21.00
2023-07-24T01:09:04.267Z,21.10
2023-07-24T01:11:37.254Z,21.30
2023-07-24T01:14:15.769Z,21.30
2023-07-24T01:16:44.722Z,21.20
2023-07-24T01:19:38.197Z,20.90
2023-07-24T01:22:23.619Z,20.50
2023-07-24T01:25:24.321Z,20.40
2023-07-24T01:27:53.689Z,20.30
2023-07-24T01:30:23.414Z,20.40
2023-07-24T01:32:50.514Z,20.40
2023-07-24T01:35:17.704Z,20.50
2023-07-24T01:37:45.666Z,20.50
2023-07-24T01:40:13.425Z,20.60
2023-07-24T01:42:40.799Z,20.50
2023-07-24T01:45:08.106Z,20.50
2023-07-24T01:47:35.087Z,20.70
2023-07-24T01:50:01.980Z,20.80
2023-07-24T01:52:28.764Z,20.90
2023-07-24T01:54:55.473Z,20.90
2023-07-24T01:57:22.318Z,20.90
2023-07-24T01:59:51.891Z,20.70
2023-07-24T02:02:18.578Z,20.60
2023-07-24T02:04:47.726Z,20.40
2023-07-24T02:07:14.336Z,20.20
2023-07-24T02:09:41.395Z,20.10
2023-07-24T02:12:08.120Z,20.00
2023-07-24T02:14:34.871Z,19.90
2023-07-24T02:17:01.652Z,19.80
2023-07-24T02:19:28.984Z,19.70
2023-07-24T02:21:57.343Z,19.60
2023-07-24T02:24:24.085Z,19.60
2023-07-24T02:26:50.859Z,19.60
2023-07-24T02:29:17.553Z,19.70
2023-07-24T02:31:44.298Z,19.80
2023-07-24T02:34:10.913Z,19.90
2023-07-24T02:36:42.407Z,19.90
2023-07-24T02:39:09.648Z,20.00
2023-07-24T02:41:36.410Z,20.20
2023-07-24T02:44:04.711Z,20.30
2023-07-24T02:46:32.280Z,20.40
2023-07-24T02:48:59.220Z,20.40
2023-07-24T02:51:25.918Z,20.20
2023-07-24T02:53:55.150Z,20.10
2023-07-24T02:56:22.056Z,19.90
2023-07-24T02:58:48.824Z,19.90
2023-07-24T03:01:15.771Z,20.00
2023-07-24T03:03:42.857Z,19.90
2023-07-24T03:06:09.887Z,19.70
2023-07-24T03:08:36.538Z,19.50
2023-07-24T03:11:06.422Z,19.60
2023-07-24T03:13:33.510Z,19.80
2023-07-24T03:16:00.378Z,19.70
2023-07-24T03:18:27.220Z,19.60
2023-07-24T03:20:54.003Z,19.60
2023-07-24T03:23:21.416Z,19.50
2023-07-24T03:25:48.316Z,19.40
2023-07-24T03:28:14.950Z,19.30
2023-07-24T03:30:43.563Z,19.40
2023-07-24T03:33:10.472Z,19.30
2023-07-24T03:35:37.270Z,19.20
2023-07-24T03:38:04.116Z,19.10
2023-07-24T03:40:31.754Z,19.20
2023-07-24T03:42:58.405Z,19.20
2023-07-24T03:45:25.079Z,19.30
2023-07-24T03:47:51.812Z,19.30
2023-07-24T03:50:18.510Z,19.30
2023-07-24T03:52:46.465Z,19.30
2023-07-24T03:55:13.202Z,19.50
2023-07-24T03:57:39.875Z,19.60
2023-07-24T04:00:07.505Z,19.60
2023-07-24T04:02:40.854Z,19.50
2023-07-24T04:05:07.757Z,19.30
2023-07-24T04:07:34.460Z,19.40
2023-07-24T04:10:01.139Z,19.60
2023-07-24T04:12:27.774Z,19.60
2023-07-24T04:14:54.523Z,19.70
2023-07-24T04:17:21.290Z,19.70
2023-07-24T04:19:48.041Z,19.50
2023-07-24T04:22:14.721Z,19.40
2023-07-24T04:24:41.562Z,19.40
2023-07-24T04:27:08.244Z,19.50
2023-07-24T04:29:34.892Z,19.50
2023-07-24T04:32:01.550Z,19.70
2023-07-24T04:34:28.205Z,19.70
2023-07-24T04:36:54.896Z,19.70
2023-07-24T04:39:21.547Z,19.90
2023-07-24T04:41:48.338Z,19.90
2023-07-24T04:44:17.728Z,20.00
2023-07-24T04:46:44.502Z,20.10
2023-07-24T04:49:11.209Z,20.10
2023-07-24T04:51:38.002Z,20.20
2023-07-24T04:54:04.740Z,20.30
2023-07-24T04:56:31.713Z,20.40
2023-07-24T04:58:58.726Z,20.50
2023-07-24T05:01:25.523Z,20.60
2023-07-24T05:03:52.312Z,20.60
2023-07-24T05:06:21.736Z,20.60
2023-07-24T05:08:48.390Z,20.60
2023-07-24T05:11:15.029Z,20.60
2023-07-24T05:13:41.658Z,20.60
2023-07-24T05:16:08.327Z,20.50
2023-07-24T05:18:35.064Z,20.50
2023-07-24T05:21:01.791Z,20.60
2023-07-24T05:23:28.526Z,20.70
2023-07-24T05:25:59.845Z,20.80
2023-07-24T05:28:31.166Z,20.90
2023-07-24T05:31:02.517Z,20.90
2023-07-24T05:33:29.544Z,21.00
2023-07-24T05:36:04.399Z,21.10
2023-07-24T05:38:31.231Z,21.00
2023-07-24T05:40:59.231Z,20.90
2023-07-24T05:43:26.239Z,20.90
2023-07-24T05:45:53.448Z,21.00
2023-07-24T05:48:20.407Z,21.10
2023-07-24T05:50:47.234Z,21.10
2023-07-24T05:53:14.129Z,21.00
2023-07-24T05:55:40.892Z,21.10
2023-07-24T05:58:07.532Z,21.30
2023-07-24T06:00:34.394Z,21.30
2023-07-24T06:03:01.316Z,21.40
2023-07-24T06:05:28.074Z,21.40
2023-07-24T06:07:54.897Z,21.50
2023-07-24T06:10:21.666Z,21.60
2023-07-24T06:12:48.762Z,21.70
2023-07-24T06:15:15.564Z,21.80
2023-07-24T06:17:42.371Z,21.70
2023-07-24T06:20:09.383Z,21.70
2023-07-24T06:22:36.011Z,21.80
2023-07-24T06:25:02.649Z,21.80
2023-07-24T06:27:29.355Z,21.80
2023-07-24T06:30:04.980Z,21.90
2023-07-24T06:32:40.194Z,22.00
2023-07-24T06:35:07.194Z,22.10
2023-07-24T06:37:33.958Z,22.20
2023-07-24T06:40:00.888Z,22.60
2023-07-24T06:42:27.630Z,22.90
2023-07-24T06:44:54.249Z,23.20
2023-07-24T06:47:21.001Z,23.30
2023-07-24T06:49:48.222Z,23.40
2023-07-24T06:52:14.903Z,23.60
2023-07-24T06:54:41.682Z,23.70
2023-07-24T06:57:08.361Z,23.80
2023-07-24T06:59:35.045Z,23.90
2023-07-24T07:02:01.822Z,23.90
2023-07-24T07:04:28.447Z,23.80
2023-07-24T07:06:55.265Z,23.90
2023-07-24T07:09:22.015Z,23.90
2023-07-24T07:11:48.728Z,23.80
2023-07-24T07:14:18.128Z,23.90
2023-07-24T07:16:45.662Z,23.80
2023-07-24T07:19:12.460Z,23.80
2023-07-24T07:21:39.204Z,23.90
2023-07-24T07:24:06.099Z,23.90
2023-07-24T07:26:33.267Z,23.80
2023-07-24T07:29:00.791Z,23.70
2023-07-24T07:31:27.491Z,23.70
2023-07-24T07:33:54.242Z,23.60
2023-07-24T07:36:23.091Z,23.70
2023-07-24T07:38:50.317Z,23.70
2023-07-24T07:41:17.110Z,23.80
2023-07-24T07:43:43.864Z,23.90
2023-07-24T07:46:10.569Z,24.00
2023-07-24T07:48:37.280Z,24.10
2023-07-24T07:51:03.986Z,24.20
2023-07-24T07:53:30.739Z,24.30
2023-07-24T07:55:58.407Z,24.40
2023-07-24T07:58:25.453Z,24.50
2023-07-24T08:00:52.133Z,24.60
2023-07-24T08:03:18.979Z,24.70
2023-07-24T08:05:45.666Z,24.90
2023-07-24T08:08:12.358Z,25.00
2023-07-24T08:10:39.824Z,25.20
2023-07-24T08:13:06.490Z,25.30
2023-07-24T08:15:37.521Z,25.40
2023-07-24T08:18:06.037Z,25.30
2023-07-24T08:20:35.980Z,25.20
2023-07-24T08:23:02.827Z,25.10
2023-07-24T08:25:29.415Z,25.30
2023-07-24T08:28:05.473Z,25.50
2023-07-24T08:30:34.652Z,25.50
2023-07-24T08:33:01.506Z,25.70
2023-07-24T08:35:28.326Z,25.70
2023-07-24T08:37:55.053Z,25.60
2023-07-24T08:40:24.063Z,25.30
2023-07-24T08:42:52.084Z,25.20
2023-07-24T08:45:19.446Z,25.10
2023-07-24T08:47:46.563Z,25.10
2023-07-24T08:50:15.906Z,25.00
2023-07-24T08:52:48.995Z,25.00
2023-07-24T08:55:16.092Z,25.10
2023-07-24T08:57:43.947Z,25.20
2023-07-24T09:00:11.038Z,25.30
2023-07-24T09:02:37.917Z,25.30
2023-07-24T09:05:08.736Z,25.30
2023-07-24T09:07:35.382Z,25.40
2023-07-24T09:10:02.039Z,25.40
2023-07-24T09:12:28.594Z,25.60
2023-07-24T09:15:03.919Z,25.80
2023-07-24T09:17:30.771Z,26.10
2023-07-24T09:19:58.885Z,26.20
2023-07-24T09:22:27.844Z,26.50
2023-07-24T09:24:56.751Z,26.60
2023-07-24T09:27:29.582Z,26.80
2023-07-24T09:29:57.443Z,26.70
2023-07-24T09:32:26.435Z,26.70
2023-07-24T09:34:55.328Z,26.70
2023-07-24T09:37:29.185Z,26.80
2023-07-24T09:39:56.020Z,26.60
2023-07-24T09:42:48.528Z,26.50
2023-07-24T09:45:25.450Z,26.40
2023-07-24T09:47:56.189Z,26.40
2023-07-24T09:50:24.357Z,26.50
2023-07-24T09:52:51.858Z,26.70
2023-07-24T09:55:34.044Z,27.00
2023-07-24T09:58:02.073Z,27.10
2023-07-24T10:00:29.552Z,27.10
2023-07-24T10:02:57.207Z,27.20
2023-07-24T10:05:24.239Z,27.20
2023-07-24T10:07:52.638Z,27.30
2023-07-24T10:10:19.618Z,27.30
2023-07-24T10:12:46.588Z,27.20
2023-07-24T10:15:16.111Z,27.20
2023-07-24T10:17:43.454Z,27.40
2023-07-24T10:20:12.453Z,27.70
2023-07-24T10:22:43.337Z,27.70
2023-07-24T10:25:11.344Z,27.70
2023-07-24T10:27:47.374Z,27.60
2023-07-24T10:30:33.698Z,27.40
2023-07-24T10:33:22.404Z,27.40
2023-07-24T10:35:54.082Z,27.30
2023-07-24T10:38:20.864Z,27.30
2023-07-24T10:40:54.124Z,27.20
2023-07-24T10:43:21.955Z,27.10
2023-07-24T10:45:53.879Z,27.10
2023-07-24T10:48:22.873Z,26.90
2023-07-24T10:50:53.985Z,26.70
2023-07-24T10:53:23.248Z,26.70
2023-07-24T10:55:52.077Z,26.80
2023-07-24T10:58:26.327Z,26.90
2023-07-24T11:00:52.964Z,26.90
2023-07-24T11:03:20.320Z,26.90
2023-07-24T11:05:48.370Z,26.90
2023-07-24T11:08:17.551Z,26.80
2023-07-24T11:10:48.803Z,26.60
2023-07-24T11:13:20.172Z,26.60
2023-07-24T11:15:47.364Z,26.70
2023-07-24T11:18:14.292Z,27.10
2023-07-24T11:20:47.051Z,27.30
2023-07-24T11:23:14.365Z,27.30
2023-07-24T11:25:43.793Z,27.40
2023-07-24T11:28:13.378Z,27.60
2023-07-24T11:30:40.802Z,27.50
2023-07-24T11:33:11.582Z,27.60
2023-07-24T11:35:43.542Z,28.00
2023-07-24T11:38:11.012Z,28.40
2023-07-24T11:40:42.601Z,28.70
2023-07-24T11:43:19.709Z,28.70
2023-07-24T11:45:49.778Z,28.40
2023-07-24T11:48:16.894Z,28.70
2023-07-24T11:50:45.592Z,28.90
2023-07-24T11:53:29.554Z,29.20
2023-07-24T11:55:58.961Z,29.40
2023-07-24T11:58:30.499Z,29.30
2023-07-24T12:00:57.835Z,29.30
2023-07-24T12:03:29.924Z,29.20
2023-07-24T12:05:56.980Z,29.30
2023-07-24T12:08:34.934Z,29.40
2023-07-24T12:11:02.184Z,29.40
2023-07-24T12:13:29.651Z,29.40
2023-07-24T12:15:56.992Z,29.40
2023-07-24T12:18:23.591Z,29.40
2023-07-24T12:20:50.234Z,29.10
2023-07-24T12:23:18.153Z,28.90
2023-07-24T12:25:44.822Z,28.60
2023-07-24T12:28:11.399Z,28.20
2023-07-24T12:30:37.950Z,27.90
2023-07-24T12:33:04.573Z,27.70
2023-07-24T12:35:31.137Z,27.40
2023-07-24T12:37:57.735Z,27.10
2023-07-24T12:40:24.482Z,26.90
2023-07-24T12:42:51.037Z,26.80
2023-07-24T12:45:17.614Z,26.50
2023-07-24T12:47:44.203Z,26.20
2023-07-24T12:50:10.959Z,26.00
2023-07-24T12:52:37.807Z,25.90
2023-07-24T12:55:05.406Z,26.00
2023-07-24T12:57:31.951Z,26.10
2023-07-24T12:59:58.515Z,26.20
2023-07-24T13:02:25.244Z,26.00
2023-07-24T13:04:51.835Z,25.90
2023-07-24T13:07:18.462Z,25.80
2023-07-24T13:09:45.306Z,26.10
2023-07-24T13:12:11.964Z,26.60
2023-07-24T13:14:40.253Z,26.70
2023-07-24T13:17:08.987Z,26.80
2023-07-24T13:19:35.638Z,26.70
2023-07-24T13:22:02.146Z,26.60
2023-07-24T13:24:28.887Z,26.60
2023-07-24T13:26:55.596Z,26.40
2023-07-24T13:29:25.892Z,26.40
2023-07-24T13:31:53.368Z,26.40
2023-07-24T13:34:20.897Z,26.50
2023-07-24T13:36:50.505Z,26.30
2023-07-24T13:39:18.095Z,26.00
2023-07-24T13:41:44.732Z,25.80
2023-07-24T13:44:11.455Z,25.50
2023-07-24T13:46:40.325Z,25.40
2023-07-24T13:49:07.784Z,25.40
2023-07-24T13:51:34.472Z,25.60
2023-07-24T13:54:02.610Z,25.80
2023-07-24T13:56:32.278Z,26.10
2023-07-24T13:58:59.096Z,26.60
2023-07-24T14:01:25.807Z,27.10
2023-07-24T14:03:52.481Z,27.30
2023-07-24T14:06:19.197Z,27.70
2023-07-24T14:08:45.877Z,27.80
2023-07-24T14:11:12.607Z,27.90
2023-07-24T14:13:39.190Z,28.10
2023-07-24T14:16:05.869Z,28.00
2023-07-24T14:18:32.582Z,27.80
2023-07-24T14:21:00.541Z,27.80
2023-07-24T14:23:27.189Z,28.00
2023-07-24T14:25:53.772Z,28.00
2023-07-24T14:28:20.290Z,27.60
2023-07-24T14:30:46.832Z,27.70
2023-07-24T14:33:13.385Z,27.50
2023-07-24T14:35:40.070Z,27.30
2023-07-24T14:38:06.741Z,26.90
2023-07-24T14:40:33.338Z,26.50
2023-07-24T14:42:59.909Z,26.40
2023-07-24T14:45:26.819Z,26.30
2023-07-24T14:47:53.478Z,26.20
2023-07-24T14:50:20.056Z,25.80
2023-07-24T14:52:46.722Z,25.70
2023-07-24T14:55:13.340Z,25.40
2023-07-24T14:57:40.745Z,25.10
2023-07-24T15:00:08.147Z,24.80
2023-07-24T15:02:34.755Z,24.70
2023-07-24T15:05:01.393Z,25.10
2023-07-24T15:07:28.720Z,25.80
2023-07-24T15:09:55.594Z,26.00
2023-07-24T15:12:22.428Z,26.00
2023-07-24T15:14:48.948Z,26.00
2023-07-24T15:17:15.953Z,26.00
2023-07-24T15:19:42.553Z,26.40
2023-07-24T15:22:09.125Z,26.40
2023-07-24T15:24:35.789Z,26.40
2023-07-24T15:27:09.045Z,26.60
2023-07-24T15:29:39.070Z,26.70
2023-07-24T15:32:06.620Z,27.00
2023-07-24T15:34:33.952Z,27.00
2023-07-24T15:37:01.106Z,27.10
2023-07-24T15:39:27.634Z,27.20
2023-07-24T15:41:54.149Z,27.20
2023-07-24T15:44:21.233Z,27.30
2023-07-24T15:46:48.232Z,27.40
2023-07-24T15:49:15.429Z,27.40
2023-07-24T15:51:41.981Z,27.40
2023-07-24T15:54:11.104Z,27.60
2023-07-24T15:56:41.984Z,27.80
2023-07-24T15:59:10.527Z,27.60
2023-07-24T16:01:37.113Z,27.30
2023-07-24T16:04:03.759Z,27.30
2023-07-24T16:06:30.408Z,27.40
2023-07-24T16:08:56.965Z,27.20
2023-07-24T16:11:23.493Z,27.30
2023-07-24T16:13:50.003Z,27.10
2023-07-24T16:16:16.544Z,26.90
2023-07-24T16:18:43.154Z,26.70
2023-07-24T16:21:09.825Z,26.90
2023-07-24T16:23:36.400Z,27.10
2023-07-24T16:26:03.108Z,27.20
2023-07-24T16:28:29.618Z,26.80
2023-07-24T16:30:58.557Z,26.30
2023-07-24T16:33:25.605Z,26.30
2023-07-24T16:35:52.504Z,26.40
2023-07-24T16:38:19.310Z,27.00
2023-07-24T16:40:45.952Z,27.10
2023-07-24T16:43:12.698Z,26.90
2023-07-24T16:45:39.346Z,26.90
2023-07-24T16:48:06.674Z,26.70
2023-07-24T16:50:35.037Z,26.80
2023-07-24T16:53:01.649Z,26.70
2023-07-24T16:55:30.248Z,26.70
2023-07-24T16:57:57.288Z,26.40
2023-07-24T17:00:23.936Z,26.40
2023-07-24T17:02:50.552Z,26.90
2023-07-24T17:05:17.316Z,27.20
2023-07-24T17:07:43.835Z,27.00
2023-07-24T17:10:10.887Z,26.90
2023-07-24T17:12:37.446Z,26.60
2023-07-24T17:15:04.285Z,27.00
2023-07-24T17:17:30.866Z,26.60
2023-07-24T17:19:57.506Z,26.20
2023-07-24T17:22:24.274Z,25.90
2023-07-24T17:24:51.508Z,25.60
2023-07-24T17:27:18.065Z,25.40
2023-07-24T17:29:44.658Z,25.20
2023-07-24T17:32:12.935Z,25.00
2023-07-24T17:34:40.018Z,24.90
2023-07-24T17:37:06.574Z,24.80
2023-07-24T17:39:33.092Z,24.80
2023-07-24T17:41:59.760Z,24.70
2023-07-24T17:44:26.322Z,24.70
2023-07-24T17:46:52.928Z,24.70
2023-07-24T17:49:19.511Z,24.70
2023-07-24T17:51:46.013Z,24.80
2023-07-24T17:54:12.639Z,24.80
2023-07-24T17:56:39.123Z,24.70
2023-07-24T17:59:05.658Z,24.70
2023-07-24T18:01:32.550Z,24.60
2023-07-24T18:03:59.393Z,24.50
2023-07-24T18:06:25.945Z,24.70
2023-07-24T18:08:52.489Z,25.60
2023-07-24T18:11:19.073Z,26.30
2023-07-24T18:13:45.631Z,26.30
2023-07-24T18:16:12.222Z,26.20
2023-07-24T18:18:38.881Z,25.90
2023-07-24T18:21:08.884Z,25.70
2023-07-24T18:23:36.058Z,25.40
2023-07-24T18:26:02.825Z,25.30
2023-07-24T18:28:29.468Z,25.10
2023-07-24T18:30:55.982Z,24.90
2023-07-24T18:33:22.589Z,24.80
2023-07-24T18:35:50.235Z,24.60
2023-07-24T18:38:18.501Z,24.60
2023-07-24T18:40:45.020Z,24.40
2023-07-24T18:43:11.584Z,24.20
2023-07-24T18:45:38.133Z,24.10
2023-07-24T18:48:04.974Z,24.00
2023-07-24T18:50:31.676Z,24.00
2023-07-24T18:52:58.211Z,24.00
2023-07-24T18:55:24.960Z,23.90
2023-07-24T18:57:51.556Z,23.80
2023-07-24T19:00:18.752Z,23.80
2023-07-24T19:02:45.724Z,23.70
2023-07-24T19:05:12.779Z,23.70
2023-07-24T19:07:39.490Z,23.50
2023-07-24T19:10:10.301Z,23.50
2023-07-24T19:12:39.089Z,23.50
2023-07-24T19:15:07.448Z,23.40
2023-07-24T19:17:34.006Z,23.40
2023-07-24T19:20:01.047Z,23.40
2023-07-24T19:22:27.605Z,23.30
2023-07-24T19:24:55.202Z,23.30
2023-07-24T19:27:22.717Z,23.30
2023-07-24T19:29:49.309Z,23.30
2023-07-24T19:32:15.935Z,23.30
2023-07-24T19:34:44.897Z,23.30
2023-07-24T19:37:12.028Z,23.30
2023-07-24T19:39:41.862Z,23.20
2023-07-24T19:42:12.399Z,23.10
2023-07-24T19:44:39.045Z,23.10
2023-07-24T19:47:05.860Z,23.20
2023-07-24T19:49:35.863Z,23.20
2023-07-24T19:52:03.213Z,23.10
2023-07-24T19:54:30.249Z,23.10
2023-07-24T19:56:57.140Z,23.00
2023-07-24T19:59:24.020Z,23.00
2023-07-24T20:01:50.541Z,23.00
2023-07-24T20:04:17.161Z,23.00
2023-07-24T20:06:43.752Z,22.90
2023-07-24T20:09:10.267Z,22.90
2023-07-24T20:11:37.004Z,22.80
2023-07-24T20:14:03.672Z,22.80
2023-07-24T20:16:30.277Z,22.70
2023-07-24T20:18:56.820Z,22.70
2023-07-24T20:21:23.337Z,22.70
2023-07-24T20:23:50.182Z,22.70
2023-07-24T20:26:17.014Z,22.50
2023-07-24T20:28:44.250Z,22.50
2023-07-24T20:31:11.778Z,22.50
2023-07-24T20:33:38.868Z,22.40
2023-07-24T20:36:09.605Z,22.40
2023-07-24T20:38:38.102Z,22.40
2023-07-24T20:41:05.620Z,22.30
2023-07-24T20:43:32.326Z,22.30
2023-07-24T20:46:09.956Z,22.30
2023-07-24T20:48:36.555Z,22.30
2023-07-24T20:51:03.058Z,22.30
2023-07-24T20:53:31.037Z,22.30
2023-07-24T20:55:59.248Z,22.20
2023-07-24T20:58:25.812Z,22.20
2023-07-24T21:00:52.479Z,22.20
2023-07-24T21:03:18.995Z,22.20
2023-07-24T21:05:45.538Z,22.20
2023-07-24T21:08:12.101Z,22.20
2023-07-24T21:10:38.604Z,22.20
2023-07-24T21:13:05.081Z,22.20
2023-07-24T21:15:31.649Z,22.30
2023-07-24T21:17:58.290Z,22.30
2023-07-24T21:20:24.856Z,22.20
2023-07-24T21:22:51.426Z,22.20
2023-07-24T21:25:19.380Z,22.10
2023-07-24T21:27:45.992Z,22.00
2023-07-24T21:30:13.134Z,22.00
2023-07-24T21:32:39.991Z,22.00
2023-07-24T21:35:06.863Z,22.00
2023-07-24T21:37:33.394Z,21.90
2023-07-24T21:39:59.902Z,21.90
2023-07-24T21:42:26.754Z,21.80
2023-07-24T21:44:53.308Z,21.70
2023-07-24T21:47:19.814Z,21.70
2023-07-24T21:49:46.376Z,21.70
2023-07-24T21:52:12.979Z,21.70
2023-07-24T21:54:39.494Z,21.70
2023-07-24T21:57:08.117Z,21.60
2023-07-24T21:59:35.132Z,21.50
2023-07-24T22:02:01.804Z,21.50
2023-07-24T22:04:28.465Z,21.40
2023-07-24T22:06:55.750Z,21.40
2023-07-24T22:09:22.301Z,21.40
2023-07-24T22:11:48.965Z,21.40
2023-07-24T22:14:16.506Z,21.40
2023-07-24T22:16:43.078Z,21.50
2023-07-24T22:19:09.657Z,21.50
2023-07-24T22:21:37.186Z,21.40
2023-07-24T22:24:03.938Z,21.40
2023-07-24T22:26:31.156Z,21.40
2023-07-24T22:28:57.796Z,21.40
2023-07-24T22:31:24.323Z,21.40
2023-07-24T22:33:50.859Z,21.40
2023-07-24T22:36:17.587Z,21.30
2023-07-24T22:38:44.179Z,21.30
2023-07-24T22:41:14.770Z,21.30
2023-07-24T22:43:41.360Z,21.30
2023-07-24T22:46:08.050Z,21.40
2023-07-24T22:48:34.676Z,21.40
2023-07-24T22:51:01.382Z,21.40
2023-07-24T22:53:27.974Z,21.50
2023-07-24T22:55:54.608Z,21.50
2023-07-24T22:58:21.164Z,21.40
2023-07-24T23:00:47.896Z,21.30
2023-07-24T23:03:14.639Z,21.30
2023-07-24T23:05:41.248Z,21.20
2023-07-24T23:08:07.844Z,21.20
2023-07-24T23:10:34.363Z,21.10
2023-07-24T23:13:00.875Z,21.20
2023-07-24T23:15:27.402Z,21.30
2023-07-24T23:17:53.914Z,21.40
2023-07-24T23:20:20.475Z,21.40
2023-07-24T23:22:47.357Z,21.40
2023-07-24T23:25:13.873Z,21.20
2023-07-24T23:27:40.397Z,21.10
2023-07-24T23:30:07.538Z,21.10
2023-07-24T23:32:34.326Z,21.00
2023-07-24T23:35:00.859Z,20.90
2023-07-24T23:37:27.427Z,20.70
2023-07-24T23:39:53.986Z,20.80
2023-07-24T23:42:20.576Z,20.80
2023-07-24T23:44:47.110Z,20.90
2023-07-24T23:47:13.642Z,20.90
2023-07-24T23:49:40.155Z,20.80
2023-07-24T23:52:07.233Z,20.80
2023-07-24T23:54:33.809Z,20.70
2023-07-24T23:57:00.383Z,20.70
2023-07-24T23:59:27.071Z,20.80
